Time;durP1;ratioP1;P1;durP2;ratioP2;P2;SDS_P1;SDS_P2;PMS_P1;PMS_P2;Temp;Humidity;BMP_temperature;BMP_pressure;BME280_temperature;BME280_humidity;BME280_pressure;Samples;Min_cycle;Max_cycle;Signal;HPM_P1;HPM_P2
2022/05/14 00:01:42;;;;;;;7.57;3.70;;;;;;;;;;10318230;28;20080;-45
2022/05/14 00:06:43;;;;;;;10.73;3.75;;;;;;;;;;10315838;28;20445;-46
2022/05/14 00:17:04;;;;;;;9.55;3.47;;;;;;;;;;10309334;28;20125;-48
2022/05/14 00:22:04;;;;;;;8.27;3.78;;;;;;;;;;10309393;28;20058;-46
2022/05/14 00:27:05;;;;;;;5.07;3.20;;;;;;;;;;10320809;28;20394;-46
2022/05/14 00:32:06;;;;;;;7.28;3.10;;;;;;;;;;10321928;28;20060;-46
2022/05/14 00:37:07;;;;;;;7.93;3.70;;;;;;;;;;10313719;28;20030;-46
2022/05/14 00:42:07;;;;;;;10.10;3.10;;;;;;;;;;10314824;28;20035;-48
2022/05/14 00:47:17;;;;;;;12.00;3.17;;;;;;;;;;10317917;28;20386;-48
2022/05/14 00:52:21;;;;;;;5.85;3.17;;;;;;;;;;10316016;28;20076;-45
2022/05/14 00:57:25;;;;;;;7.93;3.35;;;;;;;;;;10294899;28;20066;-48
2022/05/14 01:02:28;;;;;;;5.18;3.13;;;;;;;;;;10291694;28;20030;-46
2022/05/14 01:07:30;;;;;;;4.07;2.92;;;;;;;;;;10315365;28;20093;-46
2022/05/14 01:12:33;;;;;;;4.28;2.90;;;;;;;;;;10318256;28;20034;-46
2022/05/14 01:17:34;;;;;;;6.28;3.20;;;;;;;;;;10318816;28;20038;-46
2022/05/14 01:22:52;;;;;;;6.88;3.10;;;;;;;;;;10303934;28;20034;-46
2022/05/14 01:27:53;;;;;;;6.90;3.13;;;;;;;;;;10311941;28;20034;-46
2022/05/14 01:33:05;;;;;;;6.10;3.47;;;;;;;;;;10321520;28;20063;-46
2022/05/14 01:38:06;;;;;;;10.40;3.00;;;;;;;;;;10330933;28;20045;-48
2022/05/14 01:43:07;;;;;;;9.85;3.03;;;;;;;;;;10325701;28;20034;-46
2022/05/14 01:48:08;;;;;;;4.15;2.95;;;;;;;;;;10321594;28;20624;-46
2022/05/14 01:53:09;;;;;;;6.88;3.10;;;;;;;;;;10328430;28;20030;-46
2022/05/14 02:03:29;;;;;;;6.03;3.28;;;;;;;;;;10331287;28;20031;-46
2022/05/14 02:08:30;;;;;;;8.88;2.75;;;;;;;;;;10330601;28;20042;-46
2022/05/14 02:13:31;;;;;;;3.75;2.70;;;;;;;;;;10306856;28;20074;-46
2022/05/14 02:18:32;;;;;;;6.60;2.70;;;;;;;;;;10333301;28;20137;-46
2022/05/14 02:23:36;;;;;;;4.90;2.95;;;;;;;;;;10324613;28;20041;-46
2022/05/14 02:28:38;;;;;;;9.32;2.88;;;;;;;;;;10311669;28;20036;-46
2022/05/14 02:33:39;;;;;;;5.50;2.80;;;;;;;;;;10322987;28;20089;-46
2022/05/14 02:38:40;;;;;;;5.88;2.60;;;;;;;;;;10322486;28;20478;-46
2022/05/14 02:43:42;;;;;;;9.82;2.97;;;;;;;;;;10318157;28;20042;-46
2022/05/14 02:48:42;;;;;;;7.47;3.00;;;;;;;;;;10322257;28;20038;-46
2022/05/14 02:53:43;;;;;;;6.35;2.53;;;;;;;;;;10300673;28;20402;-46
2022/05/14 03:04:04;;;;;;;5.18;2.45;;;;;;;;;;10303059;28;20042;-46
2022/05/14 03:09:05;;;;;;;8.55;2.85;;;;;;;;;;10302917;28;20517;-46
2022/05/14 03:14:05;;;;;;;6.68;2.97;;;;;;;;;;10305707;28;20041;-46
2022/05/14 03:19:06;;;;;;;5.70;2.40;;;;;;;;;;10316861;28;20059;-46
2022/05/14 03:24:07;;;;;;;6.38;2.70;;;;;;;;;;10316195;28;20034;-46
2022/05/14 03:29:09;;;;;;;9.40;2.67;;;;;;;;;;10318230;28;20389;-46
2022/05/14 03:34:11;;;;;;;5.38;2.60;;;;;;;;;;10301625;28;20407;-46
2022/05/14 03:39:11;;;;;;;5.72;2.47;;;;;;;;;;10311397;28;20046;-46
2022/05/14 03:44:12;;;;;;;4.80;2.67;;;;;;;;;;10308727;28;20031;-46
2022/05/14 03:49:13;;;;;;;3.45;2.50;;;;;;;;;;10320079;28;20038;-46
2022/05/14 03:54:14;;;;;;;11.55;3.58;;;;;;;;;;10321624;28;20410;-46
2022/05/14 03:59:14;;;;;;;3.78;2.75;;;;;;;;;;10312502;28;20050;-46
2022/05/14 04:04:15;;;;;;;6.00;2.60;;;;;;;;;;10319885;28;20390;-46
2022/05/14 04:09:15;;;;;;;6.22;2.67;;;;;;;;;;10318291;28;20390;-46
2022/05/14 04:14:16;;;;;;;2.75;2.17;;;;;;;;;;10321882;28;20053;-46
2022/05/14 04:19:19;;;;;;;4.18;2.38;;;;;;;;;;10315190;28;20077;-49
2022/05/14 04:24:19;;;;;;;5.47;2.42;;;;;;;;;;10322669;28;20034;-46
2022/05/14 04:29:20;;;;;;;6.07;2.20;;;;;;;;;;10316035;28;20042;-49
2022/05/14 04:34:21;;;;;;;3.65;2.40;;;;;;;;;;10314185;28;20050;-46
2022/05/14 04:39:31;;;;;;;6.38;2.10;;;;;;;;;;10313644;28;20039;-46
2022/05/14 04:44:34;;;;;;;5.97;2.40;;;;;;;;;;10313200;28;20034;-46
2022/05/14 04:49:45;;;;;;;4.22;2.58;;;;;;;;;;10310792;28;20603;-46
2022/05/14 04:54:46;;;;;;;7.38;2.30;;;;;;;;;;10305394;28;20035;-48
2022/05/14 04:59:46;;;;;;;3.78;2.70;;;;;;;;;;10310960;28;20382;-48
2022/05/14 05:04:47;;;;;;;6.43;2.42;;;;;;;;;;10304743;28;20466;-48
2022/05/14 05:09:48;;;;;;;5.20;2.33;;;;;;;;;;10304060;28;20495;-48
2022/05/14 05:14:48;;;;;;;5.93;2.75;;;;;;;;;;10310177;28;20053;-48
2022/05/14 05:19:49;;;;;;;4.80;2.30;;;;;;;;;;10313856;28;20038;-49
2022/05/14 05:24:50;;;;;;;4.03;2.80;;;;;;;;;;10316184;28;20031;-48
2022/05/14 05:29:50;;;;;;;4.25;2.88;;;;;;;;;;10316132;28;20102;-48
2022/05/14 05:34:51;;;;;;;8.85;2.58;;;;;;;;;;10324543;28;20030;-46
2022/05/14 05:39:51;;;;;;;5.50;2.42;;;;;;;;;;10317760;28;20034;-46
2022/05/14 05:44:52;;;;;;;5.65;2.85;;;;;;;;;;10310395;28;20037;-48
2022/05/14 05:49:53;;;;;;;4.65;2.47;;;;;;;;;;10301156;28;20046;-48
2022/05/14 06:00:23;;;;;;;4.63;2.22;;;;;;;;;;10307053;28;20058;-48
2022/05/14 06:05:24;;;;;;;5.15;2.75;;;;;;;;;;10312881;28;20529;-48
2022/05/14 06:10:24;;;;;;;4.38;2.40;;;;;;;;;;10318505;28;20100;-48
2022/05/14 06:15:25;;;;;;;8.80;2.28;;;;;;;;;;10314531;28;20027;-48
2022/05/14 06:20:25;;;;;;;2.65;1.98;;;;;;;;;;10329217;28;20106;-48
2022/05/14 06:25:26;;;;;;;8.90;2.35;;;;;;;;;;10325047;28;20041;-48
2022/05/14 06:30:27;;;;;;;5.40;2.30;;;;;;;;;;10311003;28;20085;-48
2022/05/14 06:35:27;;;;;;;3.80;2.63;;;;;;;;;;10325711;28;20046;-48
2022/05/14 06:40:28;;;;;;;8.70;2.60;;;;;;;;;;10326225;28;20146;-48
2022/05/14 06:45:29;;;;;;;8.40;2.28;;;;;;;;;;10320425;28;20030;-48
2022/05/14 06:50:33;;;;;;;4.65;2.53;;;;;;;;;;10308793;28;20038;-48
2022/05/14 06:55:38;;;;;;;10.95;2.65;;;;;;;;;;10301340;28;20031;-48
2022/05/14 07:00:39;;;;;;;9.52;2.70;;;;;;;;;;10306098;28;20042;-49
2022/05/14 07:10:59;;;;;;;7.70;2.28;;;;;;;;;;10311391;28;20409;-48
2022/05/14 07:16:00;;;;;;;16.63;4.95;;;;;;;;;;10320688;28;20030;-50
2022/05/14 07:21:01;;;;;;;9.57;5.75;;;;;;;;;;10315701;28;20106;-50
2022/05/14 07:26:07;;;;;;;13.23;7.70;;;;;;;;;;10314677;28;20053;-50
2022/05/14 07:31:08;;;;;;;12.15;7.80;;;;;;;;;;10318541;28;20033;-50
2022/05/14 07:36:15;;;;;;;13.27;6.57;;;;;;;;;;10325222;28;20143;-51
2022/05/14 07:41:16;;;;;;;12.77;6.82;;;;;;;;;;10294587;28;20049;-51
2022/05/14 07:46:23;;;;;;;9.18;6.82;;;;;;;;;;10298083;28;20064;-51
2022/05/14 07:51:23;;;;;;;13.82;5.57;;;;;;;;;;10314155;28;20034;-50
2022/05/14 07:56:24;;;;;;;9.32;5.30;;;;;;;;;;10315646;28;20029;-51
2022/05/14 08:01:25;;;;;;;11.57;5.68;;;;;;;;;;10302140;28;20035;-50
2022/05/14 08:06:25;;;;;;;10.95;6.68;;;;;;;;;;10311691;28;20027;-51
2022/05/14 08:11:26;;;;;;;14.13;6.90;;;;;;;;;;10307717;28;20082;-49
2022/05/14 08:16:27;;;;;;;8.23;6.00;;;;;;;;;;10316957;28;20121;-50
2022/05/14 08:26:52;;;;;;;7.63;5.55;;;;;;;;;;10317404;28;20034;-49
2022/05/14 08:31:54;;;;;;;7.15;5.10;;;;;;;;;;10311703;28;20582;-49
2022/05/14 08:36:55;;;;;;;8.10;6.03;;;;;;;;;;10318650;28;20038;-49
2022/05/14 08:41:57;;;;;;;10.00;5.65;;;;;;;;;;10316296;28;20022;-48
2022/05/14 08:47:04;;;;;;;36.35;5.65;;;;;;;;;;10315172;28;20513;-48
2022/05/14 08:52:10;;;;;;;17.15;5.45;;;;;;;;;;10315904;28;20081;-48
2022/05/14 08:57:23;;;;;;;18.08;5.88;;;;;;;;;;10317275;28;20034;-48
2022/05/14 09:02:35;;;;;;;12.35;4.95;;;;;;;;;;10305664;28;20061;-48
2022/05/14 09:07:37;;;;;;;11.18;5.20;;;;;;;;;;10307463;28;20534;-48
2022/05/14 09:13:13;;;;;;;8.30;4.47;;;;;;;;;;10312296;28;20042;-48
2022/05/14 09:18:21;;;;;;;15.23;4.63;;;;;;;;;;10291361;28;20042;-48
2022/05/14 09:23:39;;;;;;;11.93;5.28;;;;;;;;;;10312657;28;20139;-48
2022/05/14 09:28:57;;;;;;;17.73;5.22;;;;;;;;;;10282045;28;20042;-48
2022/05/14 09:34:16;;;;;;;15.90;5.75;;;;;;;;;;10303443;28;20513;-48
2022/05/14 09:39:22;;;;;;;7.65;4.35;;;;;;;;;;10285297;28;20043;-48
2022/05/14 09:44:35;;;;;;;10.20;4.88;;;;;;;;;;10305663;28;20038;-48
2022/05/14 09:49:39;;;;;;;11.52;5.55;;;;;;;;;;10307067;28;20026;-47
2022/05/14 09:54:46;;;;;;;11.05;5.30;;;;;;;;;;10306876;28;20037;-48
2022/05/14 10:00:21;;;;;;;12.30;5.22;;;;;;;;;;10305569;28;20034;-48
2022/05/14 10:05:37;;;;;;;9.23;5.13;;;;;;;;;;10328446;28;20062;-48
2022/05/14 10:11:04;;;;;;;12.23;4.88;;;;;;;;;;10322740;28;20073;-48
2022/05/14 10:16:30;;;;;;;10.27;4.88;;;;;;;;;;10324109;28;20044;-48
2022/05/14 10:21:43;;;;;;;14.57;5.00;;;;;;;;;;10310896;28;20171;-48
2022/05/14 10:27:09;;;;;;;6.10;4.30;;;;;;;;;;10320906;28;20033;-47
2022/05/14 10:32:19;;;;;;;10.73;4.75;;;;;;;;;;10325513;28;20056;-47
2022/05/14 10:37:32;;;;;;;6.82;3.97;;;;;;;;;;10310449;28;20491;-48
2022/05/14 10:42:48;;;;;;;8.35;4.55;;;;;;;;;;10313119;28;20073;-48
2022/05/14 10:48:37;;;;;;;6.95;4.30;;;;;;;;;;10305213;28;20486;-46
2022/05/14 10:53:48;;;;;;;20.38;9.80;;;;;;;;;;10318214;28;20112;-46
2022/05/14 10:58:51;;;;;;;12.48;6.80;;;;;;;;;;10321905;28;20046;-48
2022/05/14 11:04:24;;;;;;;11.73;6.05;;;;;;;;;;10311590;28;20046;-46
2022/05/14 11:09:31;;;;;;;10.57;5.57;;;;;;;;;;10313782;28;20635;-48
2022/05/14 11:14:44;;;;;;;7.65;4.63;;;;;;;;;;10304966;28;20037;-46
2022/05/14 11:19:44;;;;;;;8.48;5.20;;;;;;;;;;10283814;28;20052;-46
2022/05/14 11:24:46;;;;;;;9.65;5.53;;;;;;;;;;10298863;28;20498;-46
2022/05/14 11:29:56;;;;;;;8.45;4.95;;;;;;;;;;10322924;28;20106;-47
2022/05/14 11:35:00;;;;;;;12.32;5.15;;;;;;;;;;10303359;28;20031;-47
2022/05/14 11:40:14;;;;;;;8.52;4.90;;;;;;;;;;10299110;28;20030;-48
2022/05/14 11:45:28;;;;;;;7.65;5.00;;;;;;;;;;10310005;28;20085;-48
2022/05/14 11:51:01;;;;;;;15.57;5.18;;;;;;;;;;10316915;28;20117;-45
2022/05/14 11:56:41;;;;;;;12.23;4.20;;;;;;;;;;10294196;28;20048;-48
2022/05/14 12:01:45;;;;;;;9.95;5.20;;;;;;;;;;10307326;28;20049;-46
2022/05/14 12:07:36;;;;;;;9.98;4.75;;;;;;;;;;10290591;28;20039;-47
2022/05/14 12:13:20;;;;;;;12.20;4.80;;;;;;;;;;10300013;28;20042;-48
2022/05/14 12:18:22;;;;;;;10.55;4.47;;;;;;;;;;10310050;28;20563;-48
2022/05/14 12:23:40;;;;;;;9.20;4.43;;;;;;;;;;10303519;28;20038;-46
2022/05/14 12:28:43;;;;;;;11.98;4.93;;;;;;;;;;10318378;28;20037;-46
2022/05/14 12:34:04;;;;;;;11.05;4.72;;;;;;;;;;10321463;28;20033;-46
2022/05/14 12:39:14;;;;;;;14.70;4.80;;;;;;;;;;10302684;28;20066;-46
2022/05/14 12:44:48;;;;;;;8.90;4.68;;;;;;;;;;10297937;28;20347;-46
2022/05/14 12:49:48;;;;;;;12.27;5.50;;;;;;;;;;10285303;28;20038;-48
2022/05/14 12:55:09;;;;;;;8.57;5.10;;;;;;;;;;10319134;28;20606;-45
2022/05/14 13:00:12;;;;;;;8.50;4.65;;;;;;;;;;10315587;28;20035;-46
2022/05/14 13:05:19;;;;;;;9.93;4.53;;;;;;;;;;10295804;28;20038;-46
2022/05/14 13:10:28;;;;;;;6.38;4.78;;;;;;;;;;10309949;28;20022;-46
2022/05/14 13:15:45;;;;;;;7.80;4.60;;;;;;;;;;10306979;28;20522;-45
2022/05/14 13:20:46;;;;;;;8.90;4.63;;;;;;;;;;10286213;28;20080;-46
2022/05/14 13:26:22;;;;;;;7.88;4.68;;;;;;;;;;10297077;28;20031;-46
2022/05/14 13:31:29;;;;;;;6.90;4.78;;;;;;;;;;10306966;28;20034;-45
2022/05/14 13:41:49;;;;;;;7.30;4.40;;;;;;;;;;10312371;28;20536;-46
2022/05/14 13:47:00;;;;;;;6.35;4.10;;;;;;;;;;10324742;28;20100;-46
2022/05/14 13:52:03;;;;;;;6.75;4.15;;;;;;;;;;10315816;28;20145;-46
2022/05/14 13:57:19;;;;;;;6.22;4.20;;;;;;;;;;10314946;28;20042;-46
2022/05/14 14:02:29;;;;;;;12.10;4.50;;;;;;;;;;10312225;28;20085;-46
2022/05/14 14:07:35;;;;;;;4.97;3.60;;;;;;;;;;10311271;28;20399;-46
2022/05/14 14:12:35;;;;;;;5.78;4.25;;;;;;;;;;10313895;28;20031;-46
2022/05/14 14:17:36;;;;;;;4.90;3.75;;;;;;;;;;10298235;28;20367;-46
2022/05/14 14:22:38;;;;;;;6.93;4.07;;;;;;;;;;10298516;28;20144;-46
2022/05/14 14:27:40;;;;;;;6.22;3.90;;;;;;;;;;10308563;28;20479;-46
2022/05/14 14:32:42;;;;;;;4.93;3.85;;;;;;;;;;10319794;28;20110;-45
2022/05/14 14:37:43;;;;;;;7.07;3.65;;;;;;;;;;10306554;28;20066;-45
2022/05/14 14:42:44;;;;;;;6.43;3.88;;;;;;;;;;10321539;28;20034;-46
2022/05/14 14:47:46;;;;;;;5.63;3.38;;;;;;;;;;10319422;28;20041;-46
2022/05/14 14:52:47;;;;;;;5.78;3.80;;;;;;;;;;10316844;28;20068;-46
2022/05/14 14:57:49;;;;;;;4.53;3.70;;;;;;;;;;10321543;28;20038;-46
2022/05/14 15:03:06;;;;;;;9.45;4.10;;;;;;;;;;10325086;28;20030;-46
2022/05/14 15:08:09;;;;;;;8.07;3.85;;;;;;;;;;10323815;28;20034;-46
2022/05/14 15:13:14;;;;;;;9.57;3.97;;;;;;;;;;10306009;28;20030;-46
2022/05/14 15:18:15;;;;;;;4.15;3.67;;;;;;;;;;10320354;28;20113;-46
2022/05/14 15:23:15;;;;;;;5.82;4.15;;;;;;;;;;10322299;28;20053;-46
2022/05/14 15:28:16;;;;;;;5.10;3.97;;;;;;;;;;10318795;28;20038;-46
2022/05/14 15:33:17;;;;;;;5.00;3.65;;;;;;;;;;10321039;28;20083;-45
2022/05/14 15:38:17;;;;;;;5.10;3.83;;;;;;;;;;10307144;28;20038;-46
2022/05/14 15:43:24;;;;;;;6.13;3.50;;;;;;;;;;10322990;28;20029;-46
2022/05/14 15:48:40;;;;;;;10.02;4.47;;;;;;;;;;10323529;28;20568;-46
2022/05/14 15:53:44;;;;;;;11.00;3.70;;;;;;;;;;10297280;28;20523;-46
2022/05/14 15:58:45;;;;;;;6.47;3.80;;;;;;;;;;10290301;28;20043;-46
2022/05/14 16:03:45;;;;;;;6.32;3.72;;;;;;;;;;10312323;28;20022;-46
2022/05/14 16:08:46;;;;;;;6.32;3.58;;;;;;;;;;10317055;28;20093;-46
2022/05/14 16:19:07;;;;;;;6.10;3.78;;;;;;;;;;10314479;28;20050;-46
2022/05/14 16:24:08;;;;;;;5.93;3.80;;;;;;;;;;10308086;28;20454;-46
2022/05/14 16:29:13;;;;;;;4.40;3.40;;;;;;;;;;10307661;28;20026;-46
2022/05/14 16:34:15;;;;;;;4.97;3.50;;;;;;;;;;10311389;28;20446;-46
2022/05/14 16:39:17;;;;;;;3.70;3.30;;;;;;;;;;10298288;28;20046;-46
2022/05/14 16:44:18;;;;;;;5.55;3.65;;;;;;;;;;10316173;28;20035;-46
2022/05/14 16:49:19;;;;;;;3.53;3.20;;;;;;;;;;10319133;28;20046;-46
2022/05/14 16:54:19;;;;;;;4.88;3.67;;;;;;;;;;10315437;28;20035;-46
2022/05/14 16:59:20;;;;;;;4.88;3.78;;;;;;;;;;10318408;28;20114;-46
2022/05/14 17:04:20;;;;;;;6.95;3.17;;;;;;;;;;10313352;28;20517;-46
2022/05/14 17:09:21;;;;;;;7.72;4.20;;;;;;;;;;10316008;28;20093;-46
2022/05/14 17:14:22;;;;;;;5.75;3.50;;;;;;;;;;10313955;28;20034;-46
2022/05/14 17:19:24;;;;;;;6.63;3.78;;;;;;;;;;10308741;28;20541;-47
2022/05/14 17:24:25;;;;;;;16.95;4.55;;;;;;;;;;10313091;28;20174;-46
2022/05/14 17:29:25;;;;;;;37.17;5.55;;;;;;;;;;10311615;28;20027;-46
2022/05/14 17:34:26;;;;;;;17.27;4.70;;;;;;;;;;10304775;28;20030;-45
2022/05/14 17:39:40;;;;;;;9.52;4.13;;;;;;;;;;10297642;28;20045;-46
2022/05/14 17:44:41;;;;;;;7.63;3.75;;;;;;;;;;10295580;28;20486;-46
2022/05/14 17:49:42;;;;;;;9.02;4.25;;;;;;;;;;10310809;28;20023;-46
2022/05/14 17:54:43;;;;;;;16.20;4.22;;;;;;;;;;10310445;28;20263;-46
2022/05/14 17:59:44;;;;;;;8.35;4.43;;;;;;;;;;10318902;28;20037;-46
2022/05/14 18:04:44;;;;;;;9.43;3.90;;;;;;;;;;10308570;28;20383;-47
2022/05/14 18:09:45;;;;;;;11.07;4.18;;;;;;;;;;10308368;28;20030;-45
2022/05/14 18:14:45;;;;;;;6.05;3.92;;;;;;;;;;10314011;28;20030;-45
2022/05/14 18:19:47;;;;;;;7.88;3.85;;;;;;;;;;10320300;28;20051;-46
2022/05/14 18:24:48;;;;;;;9.60;3.92;;;;;;;;;;10315081;28;20027;-45
2022/05/14 18:30:00;;;;;;;5.75;3.38;;;;;;;;;;10312343;28;20109;-45
2022/05/14 18:35:03;;;;;;;8.27;3.70;;;;;;;;;;10318448;28;20430;-46
2022/05/14 18:40:10;;;;;;;6.07;4.10;;;;;;;;;;10300250;28;20042;-45
2022/05/14 18:45:12;;;;;;;7.90;3.87;;;;;;;;;;10299460;28;20030;-45
2022/05/14 18:50:14;;;;;;;7.03;3.58;;;;;;;;;;10317469;28;20975;-45
2022/05/14 18:55:14;;;;;;;6.30;3.30;;;;;;;;;;10308306;28;20041;-46
2022/05/14 19:00:16;;;;;;;5.13;3.38;;;;;;;;;;10316156;28;20026;-45
2022/05/14 19:10:38;;;;;;;7.65;3.55;;;;;;;;;;10313838;28;20422;-45
2022/05/14 19:15:40;;;;;;;5.40;3.90;;;;;;;;;;10315144;28;20038;-46
2022/05/14 19:20:40;;;;;;;3.50;2.92;;;;;;;;;;10312448;28;20058;-46
2022/05/14 19:25:41;;;;;;;7.95;4.28;;;;;;;;;;10313850;28;20030;-46
2022/05/14 19:30:42;;;;;;;6.43;3.50;;;;;;;;;;10320702;28;20038;-45
2022/05/14 19:35:49;;;;;;;8.43;3.70;;;;;;;;;;10320887;28;20027;-46
2022/05/14 19:40:57;;;;;;;7.05;3.20;;;;;;;;;;10319475;28;20031;-46
2022/05/14 19:46:00;;;;;;;5.60;3.50;;;;;;;;;;10321397;28;20039;-46
2022/05/14 19:51:02;;;;;;;7.57;3.63;;;;;;;;;;10320596;28;20057;-46
2022/05/14 19:56:03;;;;;;;3.17;2.80;;;;;;;;;;10289611;28;20046;-45
2022/05/14 20:01:05;;;;;;;5.68;3.60;;;;;;;;;;10320123;28;20034;-46
2022/05/14 20:06:06;;;;;;;6.53;3.60;;;;;;;;;;10290544;28;20083;-46
2022/05/14 20:11:07;;;;;;;5.47;3.20;;;;;;;;;;10301272;28;20387;-46
2022/05/14 20:20:48;;;;;;;6.47;3.60;;;;;;;;;;10304597;28;20129;-45
2022/05/14 20:21:28;;;;;;;11.80;3.95;;;;;;;;;;10318458;28;20062;-45
2022/05/14 20:26:29;;;;;;;9.18;3.70;;;;;;;;;;10314392;28;20039;-45
2022/05/14 20:31:29;;;;;;;5.68;3.47;;;;;;;;;;10300681;28;20372;-45
2022/05/14 20:36:30;;;;;;;4.40;3.22;;;;;;;;;;10300152;28;20034;-45
2022/05/14 20:41:31;;;;;;;5.25;3.05;;;;;;;;;;10304571;28;20072;-45
2022/05/14 20:46:32;;;;;;;6.43;3.60;;;;;;;;;;10315054;28;20039;-45
2022/05/14 20:51:32;;;;;;;5.45;3.33;;;;;;;;;;10307673;28;20027;-45
2022/05/14 20:56:34;;;;;;;9.07;3.88;;;;;;;;;;10311680;28;20375;-45
2022/05/14 21:01:35;;;;;;;8.60;4.00;;;;;;;;;;10310318;28;20042;-45
2022/05/14 21:06:35;;;;;;;8.13;3.67;;;;;;;;;;10310522;28;20459;-45
2022/05/14 21:11:36;;;;;;;7.18;3.70;;;;;;;;;;10304834;28;20053;-45
2022/05/14 21:16:47;;;;;;;10.52;4.40;;;;;;;;;;10305806;28;20042;-46
2022/05/14 21:21:50;;;;;;;8.13;3.65;;;;;;;;;;10313367;28;20046;-46
2022/05/14 21:26:51;;;;;;;6.38;3.85;;;;;;;;;;10308563;28;20462;-45
2022/05/14 21:31:52;;;;;;;6.80;4.10;;;;;;;;;;10316645;28;20363;-45
2022/05/14 21:42:11;;;;;;;7.57;3.58;;;;;;;;;;10310621;28;20076;-45
2022/05/14 21:47:12;;;;;;;7.70;4.25;;;;;;;;;;10318838;28;20479;-45
2022/05/14 21:52:13;;;;;;;8.07;3.72;;;;;;;;;;10313260;28;20556;-46
2022/05/14 21:57:13;;;;;;;8.80;3.85;;;;;;;;;;10318987;28;20493;-45
2022/05/14 22:02:20;;;;;;;9.18;3.58;;;;;;;;;;10321407;28;20062;-45
2022/05/14 22:07:20;;;;;;;6.55;3.67;;;;;;;;;;10319662;28;20486;-46
2022/05/14 22:12:21;;;;;;;7.43;3.70;;;;;;;;;;10320095;28;20063;-45
2022/05/14 22:17:22;;;;;;;8.15;3.47;;;;;;;;;;10315458;28;20121;-45
2022/05/14 22:22:22;;;;;;;7.15;3.70;;;;;;;;;;10318241;28;20050;-45
2022/05/14 22:27:23;;;;;;;10.55;3.72;;;;;;;;;;10325642;28;20063;-45
2022/05/14 22:32:24;;;;;;;6.00;3.88;;;;;;;;;;10310416;28;20038;-45
2022/05/14 22:37:25;;;;;;;6.72;3.65;;;;;;;;;;10324006;28;20193;-45
2022/05/14 22:42:25;;;;;;;5.82;3.50;;;;;;;;;;10325450;28;20042;-45
2022/05/14 22:47:26;;;;;;;4.80;3.40;;;;;;;;;;10316366;28;20034;-45
2022/05/14 22:52:27;;;;;;;7.43;3.67;;;;;;;;;;10319622;28;20042;-45
2022/05/14 22:57:27;;;;;;;8.02;3.45;;;;;;;;;;10315366;28;20529;-45
2022/05/14 23:02:28;;;;;;;9.10;3.38;;;;;;;;;;10311297;28;20509;-45
2022/05/14 23:07:29;;;;;;;11.50;3.72;;;;;;;;;;10313409;28;20533;-45
2022/05/14 23:12:30;;;;;;;6.70;3.50;;;;;;;;;;10324716;28;20022;-45
2022/05/14 23:17:33;;;;;;;5.22;3.33;;;;;;;;;;10307226;28;20034;-45
2022/05/14 23:22:35;;;;;;;6.07;3.35;;;;;;;;;;10310279;28;20487;-45
2022/05/14 23:27:37;;;;;;;5.95;3.17;;;;;;;;;;10318603;28;20117;-45
2022/05/14 23:32:38;;;;;;;6.90;3.28;;;;;;;;;;10315352;28;20057;-45
2022/05/14 23:37:39;;;;;;;5.18;3.35;;;;;;;;;;10316734;28;20517;-45
2022/05/14 23:42:39;;;;;;;4.82;3.05;;;;;;;;;;10309337;28;20097;-45
2022/05/14 23:47:41;;;;;;;4.07;2.78;;;;;;;;;;10312617;28;20531;-45
2022/05/14 23:52:43;;;;;;;5.05;3.15;;;;;;;;;;10319552;28;20039;-45
